Time;durP1;ratioP1;P1;durP2;ratioP2;P2;SDS_P1;SDS_P2;PMS_P1;PMS_P2;Temp;Humidity;BMP_temperature;BMP_pressure;BME280_temperature;BME280_humidity;BME280_pressure;Samples;Min_cycle;Max_cycle;Signal;HPM_P1;HPM_P2
2022/01/02 07:55:51;;;;;;;3.60;1.33;;;;;;;;;;5088610;27;20592;-68
2022/01/02 07:58:19;;;;;;;1.67;1.57;;;;;;;;;;5083436;28;20210;-67
2022/01/02 08:00:46;;;;;;;0.57;0.57;;;;;;;;;;5087100;28;20567;-68
2022/01/02 08:03:14;;;;;;;2.20;2.00;;;;;;;;;;5091411;28;20194;-67
2022/01/02 08:06:06;;;;;;;1.63;1.53;;;;;;;;;;5090494;28;20201;-68
2022/01/02 08:08:35;;;;;;;1.43;1.23;;;;;;;;;;5088139;28;20247;-68
2022/01/02 08:11:08;;;;;;;2.17;1.97;;;;;;;;;;5088706;28;20689;-68
2022/01/02 08:13:38;;;;;;;0.30;0.30;;;;;;;;;;5087399;28;20284;-69
2022/01/02 08:16:07;;;;;;;2.00;1.70;;;;;;;;;;5092731;28;20214;-69
2022/01/02 08:18:37;;;;;;;0.47;0.47;;;;;;;;;;5090333;28;20209;-67
2022/01/02 08:21:05;;;;;;;2.37;1.90;;;;;;;;;;5085859;28;20345;-68
2022/01/02 08:23:34;;;;;;;1.97;1.50;;;;;;;;;;5093022;28;20205;-67
2022/01/02 08:26:03;;;;;;;0.60;0.60;;;;;;;;;;5090971;28;20194;-68
2022/01/02 08:28:33;;;;;;;0.57;0.47;;;;;;;;;;5093357;28;20213;-67
2022/01/02 08:31:00;;;;;;;0.83;0.67;;;;;;;;;;5093098;28;20201;-68
2022/01/02 08:33:28;;;;;;;1.13;1.13;;;;;;;;;;5087854;28;20195;-69
2022/01/02 08:35:55;;;;;;;3.23;2.47;;;;;;;;;;5081150;28;20218;-67
2022/01/02 08:38:23;;;;;;;0.87;0.87;;;;;;;;;;5091787;28;20220;-68
2022/01/02 08:40:50;;;;;;;0.00;0.00;;;;;;;;;;5086706;28;20222;-67
2022/01/02 08:43:18;;;;;;;0.40;0.40;;;;;;;;;;5094329;28;20202;-68
2022/01/02 08:45:46;;;;;;;4.27;2.23;;;;;;;;;;5089142;28;20336;-66
2022/01/02 08:48:15;;;;;;;1.83;1.73;;;;;;;;;;5092099;28;20249;-67
2022/01/02 08:50:43;;;;;;;1.80;1.70;;;;;;;;;;5089092;28;20216;-68
2022/01/02 08:53:11;;;;;;;1.87;1.77;;;;;;;;;;5080656;28;20213;-66
2022/01/02 08:55:38;;;;;;;2.03;1.83;;;;;;;;;;5081914;28;20241;-68
2022/01/02 08:58:08;;;;;;;0.60;0.50;;;;;;;;;;5085183;28;20202;-68
2022/01/02 09:00:45;;;;;;;1.43;1.30;;;;;;;;;;5098777;28;20563;-67
2022/01/02 09:03:23;;;;;;;1.67;1.57;;;;;;;;;;5093624;28;20202;-67
2022/01/02 09:06:16;;;;;;;1.30;1.17;;;;;;;;;;5084110;28;20721;-67
2022/01/02 09:08:43;;;;;;;0.33;0.33;;;;;;;;;;5075411;28;20202;-67
2022/01/02 09:11:11;;;;;;;4.90;2.30;;;;;;;;;;5071073;28;20214;-67
2022/01/02 09:13:56;;;;;;;0.00;0.00;;;;;;;;;;5073833;28;20198;-67
2022/01/02 09:16:37;;;;;;;0.60;0.60;;;;;;;;;;5075378;28;20207;-70
2022/01/02 09:19:28;;;;;;;0.47;0.43;;;;;;;;;;5081028;28;20211;-68
2022/01/02 09:22:11;;;;;;;0.53;0.53;;;;;;;;;;5086161;28;20214;-67
2022/01/02 09:24:57;;;;;;;2.07;1.20;;;;;;;;;;5090093;28;20205;-66
2022/01/02 09:27:32;;;;;;;1.17;1.10;;;;;;;;;;5086885;28;20286;-68
2022/01/02 09:30:09;;;;;;;0.93;0.90;;;;;;;;;;5083243;28;20198;-66
2022/01/02 09:32:58;;;;;;;;;;;;;;;;;;;;;
2022/01/02 09:38:25;;;;;;;2.33;1.00;;;;;;;;;;5078339;28;20263;-68
2022/01/02 09:40:52;;;;;;;1.30;1.30;;;;;;;;;;5069964;28;20209;-70
2022/01/02 09:43:19;;;;;;;1.07;0.87;;;;;;;;;;5066741;28;20994;-68
2022/01/02 09:45:47;;;;;;;0.73;0.73;;;;;;;;;;5078317;28;20198;-68
2022/01/02 09:48:14;;;;;;;0.40;0.40;;;;;;;;;;5075743;28;20280;-69
2022/01/02 09:50:44;;;;;;;0.37;0.37;;;;;;;;;;5081939;28;20198;-65
2022/01/02 09:53:12;;;;;;;2.30;1.50;;;;;;;;;;5085950;28;20202;-70
2022/01/02 09:55:39;;;;;;;1.80;1.57;;;;;;;;;;5081582;28;20241;-69
2022/01/02 09:58:11;;;;;;;1.90;0.90;;;;;;;;;;5089843;28;20695;-71
2022/01/02 10:00:39;;;;;;;3.90;2.53;;;;;;;;;;5080619;28;20207;-68
2022/01/02 10:03:07;;;;;;;0.93;0.43;;;;;;;;;;5081056;28;20206;-72
2022/01/02 10:08:31;;;;;;;1.33;1.23;;;;;;;;;;5075886;27;20667;-67
2022/01/02 10:11:00;;;;;;;0.60;0.53;;;;;;;;;;5074943;28;20209;-68
2022/01/02 10:13:44;;;;;;;1.50;1.40;;;;;;;;;;5078848;28;20209;-67
2022/01/02 10:16:23;;;;;;;2.73;1.03;;;;;;;;;;5076188;28;20301;-68
2022/01/02 10:18:51;;;;;;;0.63;0.57;;;;;;;;;;5073994;28;20205;-68
2022/01/02 10:21:33;;;;;;;2.07;1.37;;;;;;;;;;5075904;28;20209;-68
2022/01/02 10:24:12;;;;;;;2.60;1.37;;;;;;;;;;5075140;28;20210;-68
2022/01/02 10:26:40;;;;;;;0.90;0.90;;;;;;;;;;5075153;28;20198;-68
2022/01/02 10:29:14;;;;;;;6.70;1.20;;;;;;;;;;5077620;28;20199;-67
2022/01/02 10:31:41;;;;;;;1.40;0.77;;;;;;;;;;5074718;28;20207;-68
2022/01/02 10:34:09;;;;;;;0.70;0.70;;;;;;;;;;5076046;28;20198;-68
2022/01/02 10:36:37;;;;;;;1.33;1.23;;;;;;;;;;5075715;28;20226;-71
2022/01/02 10:39:09;;;;;;;3.63;1.00;;;;;;;;;;5076189;28;20202;-67
2022/01/02 10:41:39;;;;;;;1.10;1.03;;;;;;;;;;5076991;28;20233;-69
2022/01/02 10:44:19;;;;;;;0.83;0.77;;;;;;;;;;5077527;28;20239;-69
2022/01/02 10:47:05;;;;;;;0.60;0.60;;;;;;;;;;5074025;28;20224;-66
2022/01/02 10:49:47;;;;;;;1.80;1.70;;;;;;;;;;5075409;28;20203;-68
2022/01/02 10:52:18;;;;;;;0.43;0.43;;;;;;;;;;5076044;28;20256;-69
2022/01/02 10:54:46;;;;;;;1.00;1.00;;;;;;;;;;5074933;28;20211;-69
2022/01/02 10:57:15;;;;;;;5.60;1.20;;;;;;;;;;5077584;28;20697;-68
2022/01/02 10:59:44;;;;;;;0.73;0.63;;;;;;;;;;5075960;28;20198;-69
2022/01/02 11:02:13;;;;;;;0.63;0.63;;;;;;;;;;5075740;28;20211;-68
2022/01/02 11:04:48;;;;;;;0.50;0.50;;;;;;;;;;5077102;28;20275;-68
2022/01/02 11:07:22;;;;;;;1.30;1.00;;;;;;;;;;5073664;28;20230;-68
2022/01/02 11:09:50;;;;;;;1.23;0.77;;;;;;;;;;5076707;28;20210;-68
2022/01/02 11:12:19;;;;;;;0.63;0.43;;;;;;;;;;5075948;28;20199;-76
2022/01/02 11:14:47;;;;;;;0.93;0.60;;;;;;;;;;5079637;28;20220;-68
2022/01/02 11:17:15;;;;;;;2.30;0.70;;;;;;;;;;5083676;28;20226;-68
2022/01/02 11:19:42;;;;;;;3.60;1.30;;;;;;;;;;5071378;28;20214;-68
2022/01/02 11:22:12;;;;;;;3.20;1.07;;;;;;;;;;5065944;28;20625;-68
2022/01/02 11:24:44;;;;;;;0.73;0.73;;;;;;;;;;5062966;28;20629;-69
2022/01/02 11:27:15;;;;;;;2.60;1.40;;;;;;;;;;5062879;28;20620;-68
2022/01/02 11:29:44;;;;;;;0.10;0.10;;;;;;;;;;5061001;28;20198;-68
2022/01/02 11:32:22;;;;;;;1.37;0.73;;;;;;;;;;5062052;28;21395;-68
2022/01/02 11:34:49;;;;;;;3.53;0.60;;;;;;;;;;5060758;28;20264;-68
2022/01/02 11:37:21;;;;;;;3.57;1.00;;;;;;;;;;5061875;28;20223;-76
2022/01/02 11:39:52;;;;;;;2.30;0.93;;;;;;;;;;5062816;28;20199;-69
2022/01/02 11:42:34;;;;;;;3.80;0.93;;;;;;;;;;5062242;28;20281;-69
2022/01/02 11:45:04;;;;;;;0.23;0.23;;;;;;;;;;5060964;28;20199;-69
2022/01/02 11:47:39;;;;;;;1.27;1.10;;;;;;;;;;5068432;28;20583;-67
2022/01/02 11:50:27;;;;;;;2.97;1.77;;;;;;;;;;5068229;28;20289;-67
2022/01/02 11:53:09;;;;;;;4.10;0.80;;;;;;;;;;5061610;28;20234;-66
2022/01/02 11:55:37;;;;;;;3.83;1.37;;;;;;;;;;5066489;28;20218;-67
2022/01/02 11:58:04;;;;;;;4.43;1.30;;;;;;;;;;5065229;28;20222;-68
2022/01/02 12:00:49;;;;;;;2.40;1.23;;;;;;;;;;5067004;28;20207;-67
2022/01/02 12:03:35;;;;;;;2.00;0.80;;;;;;;;;;5065467;28;20209;-66
2022/01/02 12:06:22;;;;;;;2.47;0.97;;;;;;;;;;5070618;28;20203;-67
2022/01/02 12:08:49;;;;;;;1.20;0.50;;;;;;;;;;5069614;28;20203;-67
2022/01/02 12:11:35;;;;;;;1.00;0.87;;;;;;;;;;5067823;28;20198;-67
2022/01/02 12:14:03;;;;;;;1.07;0.60;;;;;;;;;;5068592;28;20198;-67
2022/01/02 12:16:37;;;;;;;1.27;0.60;;;;;;;;;;5067274;28;20261;-67
2022/01/02 12:19:05;;;;;;;5.63;0.70;;;;;;;;;;5069315;28;20195;-67
2022/01/02 12:21:34;;;;;;;3.37;1.30;;;;;;;;;;5070145;28;20202;-67
2022/01/02 12:24:04;;;;;;;0.63;0.57;;;;;;;;;;5070870;28;20224;-67
2022/01/02 12:26:33;;;;;;;0.67;0.37;;;;;;;;;;5068113;28;20203;-66
2022/01/02 12:29:02;;;;;;;4.00;1.73;;;;;;;;;;5070427;28;20580;-67
2022/01/02 12:31:33;;;;;;;2.37;2.17;;;;;;;;;;5067724;28;20662;-67
2022/01/02 12:34:04;;;;;;;1.23;1.03;;;;;;;;;;5070143;28;20195;-67
2022/01/02 12:36:32;;;;;;;2.83;0.50;;;;;;;;;;5064513;28;20733;-67
2022/01/02 12:39:01;;;;;;;8.10;0.83;;;;;;;;;;5065532;28;20230;-67
2022/01/02 12:41:29;;;;;;;10.33;2.20;;;;;;;;;;5068878;28;20790;-68
2022/01/02 12:43:57;;;;;;;3.73;1.90;;;;;;;;;;5064661;28;20679;-66
2022/01/02 12:46:46;;;;;;;4.80;1.40;;;;;;;;;;5056898;28;20350;-67
2022/01/02 12:49:14;;;;;;;4.23;0.63;;;;;;;;;;5065032;28;20682;-67
2022/01/02 12:51:45;;;;;;;1.00;1.00;;;;;;;;;;5065296;28;20206;-67
2022/01/02 12:54:15;;;;;;;1.63;0.90;;;;;;;;;;5065866;28;20209;-67
2022/01/02 12:56:43;;;;;;;2.07;1.20;;;;;;;;;;5066557;28;20210;-68
2022/01/02 12:59:15;;;;;;;0.50;0.50;;;;;;;;;;5063411;28;20227;-68
2022/01/02 13:01:53;;;;;;;1.33;0.87;;;;;;;;;;5064209;28;20203;-69
2022/01/02 13:04:22;;;;;;;1.07;0.57;;;;;;;;;;5065716;28;20202;-68
2022/01/02 13:06:49;;;;;;;9.33;1.33;;;;;;;;;;5065008;28;20227;-67
2022/01/02 13:09:24;;;;;;;2.47;0.87;;;;;;;;;;5063733;28;20206;-68
2022/01/02 13:11:52;;;;;;;14.43;0.87;;;;;;;;;;5062652;28;20218;-68
2022/01/02 13:14:32;;;;;;;3.43;0.97;;;;;;;;;;5065148;28;20218;-67
2022/01/02 13:16:59;;;;;;;2.30;1.10;;;;;;;;;;5063108;28;20218;-68
2022/01/02 13:19:27;;;;;;;0.33;0.33;;;;;;;;;;5063974;28;20207;-65
2022/01/02 13:21:54;;;;;;;0.60;0.57;;;;;;;;;;5062485;28;20203;-68
2022/01/02 13:24:27;;;;;;;0.10;0.10;;;;;;;;;;5066575;28;20202;-69
2022/01/02 13:26:55;;;;;;;0.97;0.97;;;;;;;;;;5060394;28;20305;-69
2022/01/02 13:29:26;;;;;;;9.73;1.23;;;;;;;;;;5063959;28;20915;-76
2022/01/02 13:31:54;;;;;;;0.70;0.27;;;;;;;;;;5063901;28;20230;-76
2022/01/02 13:34:23;;;;;;;3.80;1.70;;;;;;;;;;5065600;28;20218;-74
2022/01/02 13:36:57;;;;;;;7.83;2.23;;;;;;;;;;5063934;28;20203;-69
2022/01/02 13:39:45;;;;;;;2.27;0.50;;;;;;;;;;5064790;28;20763;-73
2022/01/02 13:42:13;;;;;;;1.30;0.47;;;;;;;;;;5067128;28;20199;-70
2022/01/02 13:44:43;;;;;;;4.80;1.50;;;;;;;;;;5066511;28;20217;-76
2022/01/02 13:47:11;;;;;;;13.03;0.30;;;;;;;;;;5065334;28;20207;-71
2022/01/02 13:49:45;;;;;;;0.30;0.30;;;;;;;;;;5064001;28;20218;-69
2022/01/02 13:52:13;;;;;;;0.37;0.37;;;;;;;;;;5066374;28;20209;-69
2022/01/02 13:54:41;;;;;;;3.37;1.33;;;;;;;;;;5066039;28;20229;-75
2022/01/02 13:57:10;;;;;;;5.30;0.90;;;;;;;;;;5066354;28;20208;-74
2022/01/02 13:59:38;;;;;;;5.70;1.03;;;;;;;;;;5065482;28;20339;-75
2022/01/02 14:02:06;;;;;;;1.57;1.47;;;;;;;;;;5067839;28;20311;-75
2022/01/02 14:04:52;;;;;;;1.90;0.90;;;;;;;;;;5066727;28;20195;-74
2022/01/02 14:07:19;;;;;;;0.90;0.47;;;;;;;;;;5064637;28;20223;-76
2022/01/02 14:09:51;;;;;;;2.00;0.93;;;;;;;;;;5066259;28;20541;-73
2022/01/02 14:12:20;;;;;;;2.80;0.63;;;;;;;;;;5066948;28;20195;-74
2022/01/02 14:14:51;;;;;;;4.17;0.70;;;;;;;;;;5065189;28;20279;-75
2022/01/02 14:17:33;;;;;;;0.10;0.10;;;;;;;;;;5064851;28;20532;-75
2022/01/02 14:20:01;;;;;;;3.37;1.70;;;;;;;;;;5064960;28;20702;-75
2022/01/02 14:22:30;;;;;;;5.53;1.53;;;;;;;;;;5062363;28;20241;-75
2022/01/02 14:24:58;;;;;;;9.20;1.27;;;;;;;;;;5066882;28;20198;-75
2022/01/02 14:27:28;;;;;;;3.83;1.17;;;;;;;;;;5064232;28;20233;-74
2022/01/02 14:29:55;;;;;;;1.60;1.27;;;;;;;;;;5066581;28;20205;-75
2022/01/02 14:32:23;;;;;;;0.63;0.13;;;;;;;;;;5066626;28;20285;-73
2022/01/02 14:34:51;;;;;;;2.83;0.67;;;;;;;;;;5065059;28;20313;-73
2022/01/02 14:37:19;;;;;;;3.77;0.93;;;;;;;;;;5063954;28;20659;-76
2022/01/02 14:39:47;;;;;;;2.43;1.03;;;;;;;;;;5065213;28;20234;-72
2022/01/02 14:42:14;;;;;;;0.30;0.30;;;;;;;;;;5066739;28;20606;-71
2022/01/02 14:44:43;;;;;;;1.03;0.53;;;;;;;;;;5067409;28;20198;-74
2022/01/02 14:47:11;;;;;;;4.90;0.77;;;;;;;;;;5064439;28;20296;-71
2022/01/02 14:49:38;;;;;;;4.40;2.10;;;;;;;;;;5063792;28;20207;-74
2022/01/02 14:52:06;;;;;;;0.50;0.50;;;;;;;;;;5061304;28;20195;-70
2022/01/02 14:54:33;;;;;;;0.67;0.23;;;;;;;;;;5068965;28;20210;-76
2022/01/02 14:57:01;;;;;;;0.73;0.40;;;;;;;;;;5070377;28;20203;-74
2022/01/02 14:59:30;;;;;;;0.40;0.40;;;;;;;;;;5067494;28;20315;-74
2022/01/02 15:01:58;;;;;;;0.63;0.37;;;;;;;;;;5068830;28;20264;-71
2022/01/02 15:04:26;;;;;;;0.00;0.00;;;;;;;;;;5068158;28;20203;-73
2022/01/02 15:06:53;;;;;;;0.00;0.00;;;;;;;;;;5068554;28;20234;-72
2022/01/02 15:09:21;;;;;;;0.17;0.17;;;;;;;;;;5070005;28;20207;-68
2022/01/02 15:11:49;;;;;;;0.00;0.00;;;;;;;;;;5068266;28;20199;-72
2022/01/02 15:14:17;;;;;;;1.23;0.77;;;;;;;;;;5072032;28;20203;-71
2022/01/02 15:16:48;;;;;;;0.10;0.10;;;;;;;;;;5064122;28;20242;-68
2022/01/02 15:19:19;;;;;;;0.00;0.00;;;;;;;;;;5060456;28;20785;-69
2022/01/02 15:21:47;;;;;;;0.03;0.03;;;;;;;;;;5068943;28;20202;-69
2022/01/02 15:24:15;;;;;;;0.30;0.30;;;;;;;;;;5070763;28;20198;-72
2022/01/02 15:26:43;;;;;;;7.73;0.20;;;;;;;;;;5066864;28;20202;-74
2022/01/02 15:29:10;;;;;;;2.50;0.50;;;;;;;;;;5068347;28;21023;-73
2022/01/02 15:31:38;;;;;;;1.60;0.53;;;;;;;;;;5067658;28;20198;-73
2022/01/02 15:34:05;;;;;;;0.17;0.17;;;;;;;;;;5064604;28;20207;-72
2022/01/02 15:36:34;;;;;;;0.27;0.27;;;;;;;;;;5069464;28;20564;-75
2022/01/02 15:39:02;;;;;;;1.10;1.10;;;;;;;;;;5066894;28;20223;-73
2022/01/02 15:41:29;;;;;;;6.23;0.10;;;;;;;;;;5069447;28;20229;-74
2022/01/02 15:43:57;;;;;;;2.33;0.70;;;;;;;;;;5068618;28;20220;-73
2022/01/02 15:46:24;;;;;;;2.07;0.10;;;;;;;;;;5069597;28;20690;-73
2022/01/02 15:48:51;;;;;;;0.10;0.00;;;;;;;;;;5066942;28;20281;-73
2022/01/02 15:51:19;;;;;;;0.37;0.10;;;;;;;;;;5066825;28;20582;-73
2022/01/02 15:53:48;;;;;;;1.80;0.73;;;;;;;;;;5062333;28;20207;-70
2022/01/02 15:56:15;;;;;;;0.40;0.40;;;;;;;;;;5065188;28;20687;-69
2022/01/02 15:58:42;;;;;;;0.10;0.10;;;;;;;;;;5069266;28;20234;-69
2022/01/02 16:01:09;;;;;;;0.00;0.00;;;;;;;;;;5066150;28;20198;-70
2022/01/02 16:03:38;;;;;;;2.60;0.20;;;;;;;;;;5068596;28;20198;-73
2022/01/02 16:06:22;;;;;;;0.27;0.13;;;;;;;;;;5067794;28;20191;-76
2022/01/02 16:08:51;;;;;;;0.00;0.00;;;;;;;;;;5081993;28;20203;-69
2022/01/02 16:11:18;;;;;;;0.17;0.17;;;;;;;;;;5071237;28;20199;-71
2022/01/02 16:13:48;;;;;;;0.17;0.17;;;;;;;;;;5079284;28;20281;-68
2022/01/02 16:16:16;;;;;;;0.00;0.00;;;;;;;;;;5069583;28;20207;-71
2022/01/02 16:18:43;;;;;;;1.50;0.53;;;;;;;;;;5062897;28;20227;-71
2022/01/02 16:21:10;;;;;;;0.00;0.00;;;;;;;;;;5069574;28;20203;-70
2022/01/02 16:23:38;;;;;;;1.50;0.73;;;;;;;;;;5072231;28;20218;-71
2022/01/02 16:26:07;;;;;;;0.30;0.30;;;;;;;;;;5072643;28;20217;-72
2022/01/02 16:28:34;;;;;;;2.53;0.60;;;;;;;;;;5070974;28;20195;-71
2022/01/02 16:31:04;;;;;;;3.97;0.60;;;;;;;;;;5069577;28;20573;-70
2022/01/02 16:33:31;;;;;;;0.00;0.00;;;;;;;;;;5070222;28;20206;-71
2022/01/02 16:35:58;;;;;;;0.00;0.00;;;;;;;;;;5071206;28;20761;-70
2022/01/02 16:38:26;;;;;;;0.20;0.20;;;;;;;;;;5071408;28;20233;-70
2022/01/02 16:40:53;;;;;;;0.13;0.13;;;;;;;;;;5070573;28;20203;-70
2022/01/02 16:43:22;;;;;;;0.20;0.20;;;;;;;;;;5069814;28;20202;-70
2022/01/02 16:45:50;;;;;;;0.00;0.00;;;;;;;;;;5071587;28;20203;-73
2022/01/02 16:48:17;;;;;;;0.27;0.20;;;;;;;;;;5071762;28;21380;-70
2022/01/02 16:50:45;;;;;;;0.57;0.57;;;;;;;;;;5069996;28;20679;-71
2022/01/02 16:53:12;;;;;;;0.00;0.00;;;;;;;;;;5071205;28;20568;-71
2022/01/02 16:55:40;;;;;;;0.00;0.00;;;;;;;;;;5070141;28;20206;-71
2022/01/02 16:58:08;;;;;;;0.10;0.10;;;;;;;;;;5070547;28;20207;-72
2022/01/02 17:00:39;;;;;;;0.00;0.00;;;;;;;;;;5071225;28;20656;-71
2022/01/02 17:03:07;;;;;;;0.00;0.00;;;;;;;;;;5071788;28;20198;-73
2022/01/02 17:05:35;;;;;;;0.00;0.00;;;;;;;;;;5079309;28;20304;-70
2022/01/02 17:08:02;;;;;;;0.00;0.00;;;;;;;;;;5064281;28;20231;-70
2022/01/02 17:10:30;;;;;;;0.33;0.20;;;;;;;;;;5071109;28;20210;-70
2022/01/02 17:12:58;;;;;;;0.00;0.00;;;;;;;;;;5068270;28;20202;-70
2022/01/02 17:15:26;;;;;;;0.37;0.23;;;;;;;;;;5070714;28;20206;-69
2022/01/02 17:17:56;;;;;;;0.20;0.20;;;;;;;;;;5068632;28;20199;-70
2022/01/02 17:20:25;;;;;;;1.63;1.60;;;;;;;;;;5070133;28;20256;-71
2022/01/02 17:22:52;;;;;;;0.83;0.30;;;;;;;;;;5070264;28;20209;-69
2022/01/02 17:25:19;;;;;;;0.10;0.10;;;;;;;;;;5070518;28;20195;-69
2022/01/02 17:27:47;;;;;;;0.73;0.20;;;;;;;;;;5067764;28;20209;-70
2022/01/02 17:30:16;;;;;;;0.20;0.20;;;;;;;;;;5063509;28;20214;-69
2022/01/02 17:32:43;;;;;;;0.00;0.00;;;;;;;;;;5068539;28;20206;-69
2022/01/02 17:35:13;;;;;;;0.10;0.10;;;;;;;;;;5068241;28;20199;-69
2022/01/02 17:37:41;;;;;;;0.20;0.20;;;;;;;;;;5066013;28;20280;-69
2022/01/02 17:40:09;;;;;;;0.20;0.20;;;;;;;;;;5077248;28;20222;-68
2022/01/02 17:42:37;;;;;;;0.17;0.17;;;;;;;;;;5069314;28;20214;-70
2022/01/02 17:45:05;;;;;;;2.70;0.40;;;;;;;;;;5066078;28;20259;-70
2022/01/02 17:47:32;;;;;;;7.00;3.03;;;;;;;;;;5067302;28;20209;-69
2022/01/02 17:49:59;;;;;;;2.27;0.57;;;;;;;;;;5067361;28;20199;-70
2022/01/02 17:52:28;;;;;;;0.10;0.10;;;;;;;;;;5070919;28;20666;-69
2022/01/02 17:54:55;;;;;;;1.70;0.70;;;;;;;;;;5069011;28;20218;-70
2022/01/02 17:57:23;;;;;;;0.37;0.37;;;;;;;;;;5069993;28;20295;-69
2022/01/02 17:59:50;;;;;;;0.30;0.30;;;;;;;;;;5065588;28;20237;-69
2022/01/02 18:02:18;;;;;;;0.30;0.30;;;;;;;;;;5062569;28;20214;-70
2022/01/02 18:04:47;;;;;;;2.60;2.37;;;;;;;;;;5061762;28;20199;-69
2022/01/02 18:07:15;;;;;;;3.57;2.37;;;;;;;;;;5067966;28;20262;-69
2022/01/02 18:09:47;;;;;;;2.80;1.40;;;;;;;;;;5067762;28;20207;-69
2022/01/02 18:12:18;;;;;;;0.20;0.20;;;;;;;;;;5070415;28;20329;-68
2022/01/02 18:14:46;;;;;;;0.10;0.10;;;;;;;;;;5069845;28;20248;-69
2022/01/02 18:17:13;;;;;;;1.13;0.20;;;;;;;;;;5066694;28;20199;-70
2022/01/02 18:19:40;;;;;;;0.20;0.10;;;;;;;;;;5068508;28;20234;-69
2022/01/02 18:22:08;;;;;;;0.00;0.00;;;;;;;;;;5070459;28;20622;-69
2022/01/02 18:24:36;;;;;;;0.00;0.00;;;;;;;;;;5060732;28;20198;-69
2022/01/02 18:27:05;;;;;;;0.20;0.20;;;;;;;;;;5066629;28;20223;-70
2022/01/02 18:29:34;;;;;;;0.10;0.10;;;;;;;;;;5066144;28;20206;-68
2022/01/02 18:32:02;;;;;;;0.00;0.00;;;;;;;;;;5071856;28;20206;-69
2022/01/02 18:34:29;;;;;;;0.00;0.00;;;;;;;;;;5070193;28;20207;-71
2022/01/02 18:36:56;;;;;;;0.20;0.20;;;;;;;;;;5071906;28;20199;-71
2022/01/02 18:39:24;;;;;;;0.33;0.20;;;;;;;;;;5068507;28;20226;-69
2022/01/02 18:41:51;;;;;;;0.13;0.13;;;;;;;;;;5071391;28;20199;-68
2022/01/02 18:44:20;;;;;;;0.10;0.10;;;;;;;;;;5074623;28;20206;-70
2022/01/02 18:46:48;;;;;;;1.80;1.30;;;;;;;;;;5070492;28;20207;-70
2022/01/02 18:49:15;;;;;;;0.40;0.30;;;;;;;;;;5069110;28;20207;-70
2022/01/02 18:51:42;;;;;;;1.03;0.10;;;;;;;;;;5070150;28;20207;-70
2022/01/02 18:54:10;;;;;;;0.37;0.37;;;;;;;;;;5074186;28;20206;-70
2022/01/02 18:56:38;;;;;;;2.80;0.57;;;;;;;;;;5073040;28;20670;-71
2022/01/02 18:59:06;;;;;;;0.50;0.50;;;;;;;;;;5068970;28;20239;-68
2022/01/02 19:01:35;;;;;;;0.77;0.60;;;;;;;;;;5070175;28;20198;-69
2022/01/02 19:04:04;;;;;;;0.33;0.33;;;;;;;;;;5073632;28;20777;-69
2022/01/02 19:06:31;;;;;;;0.50;0.50;;;;;;;;;;5071564;28;20292;-69
2022/01/02 19:08:58;;;;;;;0.77;0.77;;;;;;;;;;5068223;28;20195;-69
2022/01/02 19:11:26;;;;;;;6.03;1.57;;;;;;;;;;5064654;28;20207;-69
2022/01/02 19:13:53;;;;;;;83.23;70.47;;;;;;;;;;5070019;28;20687;-68
2022/01/02 19:16:21;;;;;;;25.50;21.77;;;;;;;;;;5071478;28;20211;-68
2022/01/02 19:18:50;;;;;;;1.90;1.60;;;;;;;;;;5072830;28;20548;-69
2022/01/02 19:21:17;;;;;;;5.00;1.57;;;;;;;;;;5071486;28;20235;-69
2022/01/02 19:23:46;;;;;;;3.33;1.83;;;;;;;;;;5071769;28;20210;-68
2022/01/02 19:26:13;;;;;;;14.33;1.37;;;;;;;;;;5068649;28;22273;-69
2022/01/02 19:28:41;;;;;;;0.20;0.10;;;;;;;;;;5066329;28;20595;-69
2022/01/02 19:31:08;;;;;;;2.07;1.20;;;;;;;;;;5069528;28;20203;-70
2022/01/02 19:33:35;;;;;;;5.43;1.43;;;;;;;;;;5073133;28;20199;-69
2022/01/02 19:36:04;;;;;;;12.00;2.17;;;;;;;;;;5065943;28;20214;-69
2022/01/02 19:38:32;;;;;;;2.13;1.63;;;;;;;;;;5068536;28;20199;-68
2022/01/02 19:40:59;;;;;;;1.73;0.93;;;;;;;;;;5070409;28;20753;-68
2022/01/02 19:43:27;;;;;;;4.37;1.50;;;;;;;;;;5072469;28;20603;-69
2022/01/02 19:45:54;;;;;;;5.60;1.33;;;;;;;;;;5070635;28;20671;-70
2022/01/02 19:48:21;;;;;;;1.23;0.73;;;;;;;;;;5069514;28;20199;-68
2022/01/02 19:50:49;;;;;;;12.30;2.03;;;;;;;;;;5065130;28;20569;-68
2022/01/02 19:53:18;;;;;;;9.23;2.73;;;;;;;;;;5072533;28;20686;-69
2022/01/02 19:55:45;;;;;;;2.13;1.00;;;;;;;;;;5071416;28;20206;-69
2022/01/02 19:58:12;;;;;;;6.53;2.87;;;;;;;;;;5068446;28;20813;-68
2022/01/02 20:00:40;;;;;;;1.03;0.43;;;;;;;;;;5071098;28;20719;-68
2022/01/02 20:03:07;;;;;;;3.43;1.90;;;;;;;;;;5072785;28;20296;-68
2022/01/02 20:05:36;;;;;;;6.93;1.60;;;;;;;;;;5072087;28;20202;-67
2022/01/02 20:08:04;;;;;;;4.43;0.83;;;;;;;;;;5069830;28;20223;-67
2022/01/02 20:10:33;;;;;;;6.83;1.33;;;;;;;;;;5069440;28;20207;-68
2022/01/02 20:13:02;;;;;;;11.20;2.90;;;;;;;;;;5070922;28;20203;-68
2022/01/02 20:15:29;;;;;;;6.40;2.97;;;;;;;;;;5070954;28;20194;-67
2022/01/02 20:17:57;;;;;;;6.80;0.90;;;;;;;;;;5070983;28;20219;-69
2022/01/02 20:20:28;;;;;;;4.27;1.63;;;;;;;;;;5071748;28;20715;-69
2022/01/02 20:22:59;;;;;;;14.20;2.80;;;;;;;;;;5070735;28;20199;-68
2022/01/02 20:25:30;;;;;;;4.43;1.27;;;;;;;;;;5070586;28;20206;-69
2022/01/02 20:28:19;;;;;;;2.30;0.73;;;;;;;;;;5070800;28;20664;-67
2022/01/02 20:30:52;;;;;;;5.40;1.23;;;;;;;;;;5068564;28;21000;-69
2022/01/02 20:33:24;;;;;;;2.23;2.03;;;;;;;;;;5069546;28;20694;-68
2022/01/02 20:36:15;;;;;;;9.33;1.80;;;;;;;;;;5066260;28;20203;-68
2022/01/02 20:38:50;;;;;;;9.57;2.27;;;;;;;;;;5071537;28;20213;-69
2022/01/02 20:41:27;;;;;;;6.00;1.50;;;;;;;;;;5069899;28;20226;-68
2022/01/02 20:44:06;;;;;;;11.80;2.47;;;;;;;;;;5070492;28;20729;-68
2022/01/02 20:46:38;;;;;;;5.40;2.17;;;;;;;;;;5071085;28;20686;-68
2022/01/02 20:49:11;;;;;;;6.00;1.67;;;;;;;;;;5057942;28;20546;-67
2022/01/02 20:51:45;;;;;;;5.13;1.63;;;;;;;;;;5067115;28;20245;-69
2022/01/02 20:54:17;;;;;;;7.40;1.83;;;;;;;;;;5067405;28;20199;-68
2022/01/02 20:56:53;;;;;;;2.10;1.07;;;;;;;;;;5060021;28;20317;-68
2022/01/02 20:59:40;;;;;;;4.23;2.33;;;;;;;;;;5069189;28;20213;-69
2022/01/02 21:02:13;;;;;;;6.03;2.17;;;;;;;;;;5060020;28;20967;-69
2022/01/02 21:04:47;;;;;;;4.40;3.10;;;;;;;;;;5070993;28;20683;-68
2022/01/02 21:07:28;;;;;;;4.07;1.23;;;;;;;;;;5061715;28;20232;-68
2022/01/02 21:09:59;;;;;;;4.43;1.77;;;;;;;;;;5070260;28;20207;-67
2022/01/02 21:12:29;;;;;;;2.17;1.13;;;;;;;;;;5070835;28;20551;-69
2022/01/02 21:15:10;;;;;;;6.57;2.40;;;;;;;;;;5068033;28;20241;-68
2022/01/02 21:17:45;;;;;;;8.30;1.83;;;;;;;;;;5069641;28;20206;-68
2022/01/02 21:20:17;;;;;;;17.17;3.13;;;;;;;;;;5071460;28;20231;-68
2022/01/02 21:22:49;;;;;;;7.57;1.87;;;;;;;;;;5069887;28;20260;-68
2022/01/02 21:25:21;;;;;;;7.83;1.67;;;;;;;;;;5065919;28;20284;-67
2022/01/02 21:27:51;;;;;;;5.93;2.30;;;;;;;;;;5065650;28;20203;-68
2022/01/02 21:30:21;;;;;;;3.77;0.80;;;;;;;;;;5066605;28;20200;-68
2022/01/02 21:32:50;;;;;;;2.27;0.80;;;;;;;;;;5062073;28;20208;-68
2022/01/02 21:35:18;;;;;;;7.97;1.70;;;;;;;;;;5064308;28;20202;-68
2022/01/02 21:37:46;;;;;;;8.00;1.77;;;;;;;;;;5065267;28;20199;-69
2022/01/02 21:40:14;;;;;;;4.77;1.77;;;;;;;;;;5064309;28;20595;-68
2022/01/02 21:42:42;;;;;;;1.97;1.30;;;;;;;;;;5065993;28;20565;-70
2022/01/02 21:45:09;;;;;;;4.40;0.83;;;;;;;;;;5064473;28;20199;-67
2022/01/02 21:47:38;;;;;;;4.37;1.90;;;;;;;;;;5067177;28;20656;-68
2022/01/02 21:50:12;;;;;;;1.83;0.80;;;;;;;;;;5070029;28;20199;-67
2022/01/02 21:52:48;;;;;;;4.37;2.43;;;;;;;;;;5069463;28;20202;-68
2022/01/02 21:55:16;;;;;;;5.03;0.90;;;;;;;;;;5061968;28;20563;-68
2022/01/02 21:57:44;;;;;;;2.23;1.07;;;;;;;;;;5061045;28;20669;-68
2022/01/02 22:00:13;;;;;;;6.43;2.77;;;;;;;;;;5068845;28;20237;-67
2022/01/02 22:02:44;;;;;;;7.90;3.03;;;;;;;;;;5065591;28;20203;-66
2022/01/02 22:05:14;;;;;;;3.93;0.90;;;;;;;;;;5074140;28;20682;-67
2022/01/02 22:07:46;;;;;;;3.37;0.77;;;;;;;;;;5069808;28;20712;-68
2022/01/02 22:10:14;;;;;;;7.23;1.30;;;;;;;;;;5089303;28;20218;-68
2022/01/02 22:12:42;;;;;;;4.60;1.83;;;;;;;;;;5060497;28;20195;-67
2022/01/02 22:15:10;;;;;;;2.77;0.97;;;;;;;;;;5068172;28;20280;-66
2022/01/02 22:17:37;;;;;;;12.13;3.07;;;;;;;;;;5070427;28;20202;-68
2022/01/02 22:20:10;;;;;;;8.13;1.50;;;;;;;;;;5070865;28;20203;-68
2022/01/02 22:22:56;;;;;;;3.23;1.63;;;;;;;;;;5066960;28;20228;-67
2022/01/02 22:25:37;;;;;;;8.70;1.47;;;;;;;;;;5061125;28;20203;-68
2022/01/02 22:28:17;;;;;;;1.07;0.90;;;;;;;;;;5067948;28;20683;-67
2022/01/02 22:30:53;;;;;;;10.43;3.27;;;;;;;;;;5065286;28;20680;-68
2022/01/02 22:33:21;;;;;;;4.70;1.37;;;;;;;;;;5062273;28;20210;-68
2022/01/02 22:35:51;;;;;;;10.20;1.93;;;;;;;;;;5062612;28;20206;-67
2022/01/02 22:38:19;;;;;;;2.90;1.13;;;;;;;;;;5067941;28;20579;-67
2022/01/02 22:40:47;;;;;;;3.00;1.90;;;;;;;;;;5064595;28;21431;-68
2022/01/02 22:43:15;;;;;;;4.40;1.80;;;;;;;;;;5064807;28;20203;-67
2022/01/02 22:45:44;;;;;;;6.63;1.50;;;;;;;;;;5064222;28;20195;-68
2022/01/02 22:48:12;;;;;;;4.07;1.00;;;;;;;;;;5068920;28;20211;-67
2022/01/02 22:50:43;;;;;;;1.33;0.80;;;;;;;;;;5066470;28;20204;-68
2022/01/02 22:53:12;;;;;;;1.60;1.03;;;;;;;;;;5065857;28;20228;-67
2022/01/02 22:55:40;;;;;;;4.67;1.57;;;;;;;;;;5064006;28;20669;-67
2022/01/02 22:58:10;;;;;;;0.77;0.77;;;;;;;;;;5066599;28;20763;-67
2022/01/02 23:00:49;;;;;;;9.70;1.50;;;;;;;;;;5062455;28;20230;-66
2022/01/02 23:03:23;;;;;;;13.27;2.37;;;;;;;;;;5065400;28;20556;-67